Rockwall, TX

1:50 AM CDT on October 18, 2019 (GMT -0500)
Rockwall

Weather History for KF46 - September, 2019

Change the Weather History Date:

Sunday, September 15, 2019

  Actual Average (KDFW) Record (KDFW)
Temperature  
Mean Temperature 84 °F -  
Max Temperature 95 °F 87 °F 100 °F (1980)
Min Temperature 73 °F 67 °F 51 °F (1993)
Cooling Degree Days 19    
Growing Degree Days 34 (Base 50)    
Moisture  
Dew Point 68 °F    
Average Humidity 58    
Maximum Humidity 83    
Minimum Humidity 39    
Precipitation  
Precipitation 0.00 in - - ()
Sea Level Pressure  
Sea Level Pressure 30.06 in    
Wind  
Wind Speed 5 mph ()    
Max Wind Speed 13 mph    
Max Gust Speed 17 mph    
Visibility 10.0 miles    
Events      
Averages and records for this station are not official NWS values.
T = Trace of Precipitation, MM = Missing Value Source: Averaged Metar Reports

Daily Weather History Graph

Daily Weather History Graph

Search for Another Location

Airport or City:

Astronomy

Sep. 15, 2019 Rise Set
Actual Time 7:09 AM CDT 7:32 PM CDT
Civil Twilight 6:44 AM CDT 7:56 PM CDT
Nautical Twilight 6:15 AM CDT 8:25 PM CDT
Astronomical Twilight 5:46 AM CDT 8:55 PM CDT
Moon 8:43 PM CDT (9/15) 8:19 AM CDT (9/15)
Length of Visible Light 13h 12m
Length of Day
12h 22m
Full, 98% of the Moon is Illuminated
Sep 15
Full
Sep 21
Last Quarter
Sep 28
New
Oct 5
First Quarter
Oct 13
Full

Hourly Weather History & Observations

Time (CDT) Temp. Heat Index Dew Point Humidity Pressure Visibility Wind Dir Wind Speed Gust Speed Precip Events Conditions
12:15 AM 81.1 °F 83.2 °F 66.2 °F 60% 30.09 in 10.0 mi East 4.6 mph - N/A   Scattered Clouds
12:35 AM 80.6 °F 82.7 °F 66.2 °F 61% 30.09 in 10.0 mi East 6.9 mph - N/A   Clear
12:55 AM 80.2 °F 82.3 °F 66.2 °F 62% 30.10 in 10.0 mi East 5.8 mph - N/A   Clear
1:15 AM 79.7 °F - 66.9 °F 65% 30.09 in 10.0 mi East 5.8 mph - N/A   Clear
1:35 AM 79.2 °F - 67.1 °F 66% 30.09 in 10.0 mi East 4.6 mph - N/A   Clear
1:55 AM 78.8 °F - 67.5 °F 68% 30.10 in 10.0 mi East 6.9 mph - N/A   Clear
2:15 AM 78.4 °F - 68.0 °F 70% 30.10 in 10.0 mi East 5.8 mph - N/A   Clear
2:35 AM 77.9 °F - 68.2 °F 72% 30.09 in 10.0 mi East 6.9 mph - N/A   Clear
2:55 AM 77.7 °F - 68.0 °F 72% 30.09 in 10.0 mi East 6.9 mph - N/A   Clear
3:15 AM 77.9 °F - 68.2 °F 72% 30.09 in 10.0 mi East 6.9 mph - N/A   Clear
3:35 AM 77.9 °F - 68.4 °F 72% 30.09 in 10.0 mi ESE 5.8 mph - N/A   Clear
3:55 AM 77.9 °F - 68.4 °F 72% 30.08 in 10.0 mi ESE 5.8 mph - N/A   Clear
4:15 AM 77.5 °F - 68.5 °F 74% 30.08 in 10.0 mi East 5.8 mph - N/A   Clear
4:35 AM 77.5 °F - 68.5 °F 74% 30.08 in 10.0 mi East 5.8 mph - N/A   Clear
4:55 AM 77.5 °F - 68.4 °F 73% 30.08 in 10.0 mi East 5.8 mph - N/A   Clear
5:15 AM 77.4 °F - 67.6 °F 72% 30.08 in 10.0 mi East 5.8 mph - N/A   Clear
5:35 AM 77.0 °F - 67.5 °F 72% 30.08 in 10.0 mi East 4.6 mph - N/A   Clear
5:55 AM 76.1 °F - 67.5 °F 74% 30.08 in 10.0 mi Calm Calm - N/A   Clear
6:15 AM 75.7 °F - 68.0 °F 77% 30.08 in 10.0 mi ENE 3.5 mph - N/A   Clear
6:35 AM 74.3 °F - 68.0 °F 81% 30.09 in 10.0 mi East 4.6 mph - N/A   Clear
6:55 AM 74.3 °F - 67.6 °F 80% 30.09 in 10.0 mi East 4.6 mph - N/A   Clear
7:15 AM 73.9 °F - 67.6 °F 81% 30.09 in 10.0 mi East 3.5 mph - N/A   Clear
7:35 AM 73.6 °F - 68.0 °F 83% 30.09 in 10.0 mi Calm Calm - N/A   Clear
7:55 AM 74.3 °F - 68.2 °F 81% 30.10 in 10.0 mi East 3.5 mph - N/A   Clear
8:15 AM 76.1 °F - 68.4 °F 77% 30.10 in 10.0 mi East 3.5 mph - N/A   Clear
8:35 AM 77.9 °F - 68.9 °F 74% 30.10 in 10.0 mi Calm Calm - N/A   Clear
9:15 AM 81.9 °F 85.0 °F 68.7 °F 64% 30.10 in 10.0 mi ESE 3.5 mph - N/A   Clear
9:35 AM 83.3 °F 86.6 °F 68.7 °F 61% 30.10 in 10.0 mi Calm Calm - N/A   Clear
9:55 AM 84.4 °F 88.2 °F 68.9 °F 60% 30.10 in 10.0 mi Calm Calm - N/A   Clear
10:15 AM 86.5 °F 90.3 °F 68.5 °F 55% 30.10 in 10.0 mi Calm Calm - N/A   Clear
10:35 AM 88.0 °F 91.8 °F 68.5 °F 52% 30.11 in 10.0 mi Calm Calm - N/A   Clear
10:55 AM 88.9 °F 92.6 °F 68.2 °F 50% 30.11 in 10.0 mi East 3.5 mph - N/A   Clear
11:15 AM 90.7 °F 95.4 °F 68.9 °F 49% 30.11 in 10.0 mi East 3.5 mph - N/A   Clear
11:35 AM 91.4 °F 94.9 °F 67.6 °F 45% 30.11 in 10.0 mi SSE 3.5 mph - N/A   Clear
11:55 AM 92.7 °F 95.8 °F 66.7 °F 42% 30.10 in 10.0 mi South 5.8 mph - N/A   Clear
12:15 PM 92.5 °F 95.9 °F 67.1 °F 43% 30.10 in 10.0 mi SE 4.6 mph - N/A   Clear
12:35 PM 93.6 °F 97.4 °F 67.5 °F 42% 30.09 in 10.0 mi South 6.9 mph - N/A   Clear
12:55 PM 94.1 °F 98.4 °F 67.5 °F 42% 30.08 in 10.0 mi Calm Calm - N/A   Clear
1:15 PM 94.8 °F 99.2 °F 67.6 °F 41% 30.08 in 10.0 mi East 3.5 mph - N/A   Clear
1:35 PM 94.5 °F 98.0 °F 66.7 °F 40% 30.07 in 10.0 mi East 9.2 mph - N/A   Scattered Clouds
1:55 PM 95.2 °F 99.9 °F 67.8 °F 41% 30.06 in 10.0 mi East 11.5 mph - N/A   Clear
2:15 PM 95.2 °F 99.3 °F 67.5 °F 40% 30.06 in 10.0 mi East 8.1 mph - N/A   Clear
2:35 PM 95.2 °F 99.3 °F 67.3 °F 40% 30.05 in 10.0 mi East 10.4 mph - N/A   Clear
2:55 PM 95.7 °F 99.8 °F 67.5 °F 39% 30.04 in 10.0 mi East 5.8 mph - N/A   Clear
3:15 PM 95.4 °F 99.1 °F 66.7 °F 39% 30.04 in 10.0 mi East 10.4 mph - N/A   Clear
3:35 PM 94.6 °F 98.3 °F 66.6 °F 40% 30.03 in 10.0 mi ESE 11.5 mph - N/A   Clear
3:55 PM 95.0 °F 99.0 °F 67.3 °F 40% 30.02 in 10.0 mi ESE 10.4 mph 17.3 mph N/A   Clear
4:15 PM 94.1 °F 97.9 °F 67.1 °F 41% 30.02 in 10.0 mi ENE 9.2 mph 16.1 mph N/A   Clear
4:35 PM 94.1 °F 97.9 °F 66.9 °F 41% 30.02 in 10.0 mi East 9.2 mph - N/A   Clear
5:15 PM 94.1 °F 97.9 °F 67.1 °F 41% 30.01 in 10.0 mi ESE 12.7 mph 17.3 mph N/A   Clear
5:35 PM 93.9 °F 97.5 °F 67.3 °F 41% 30.01 in 10.0 mi East 5.8 mph - N/A   Clear
5:55 PM 93.0 °F 95.9 °F 66.4 °F 41% 30.01 in 10.0 mi ENE 8.1 mph - N/A   Clear
6:15 PM 92.5 °F 95.4 °F 66.4 °F 42% 30.01 in 10.0 mi East 9.2 mph - N/A   Clear
6:35 PM 91.8 °F 94.6 °F 66.2 °F 43% 30.01 in 10.0 mi East 8.1 mph - N/A   Clear
6:55 PM 90.9 °F 94.0 °F 66.6 °F 45% 30.01 in 10.0 mi East 8.1 mph - N/A   Clear
7:15 PM 89.6 °F 92.6 °F 66.9 °F 47% 30.01 in 10.0 mi East 3.5 mph - N/A   Clear
7:35 PM 87.8 °F 90.7 °F 67.1 °F 50% 30.01 in 10.0 mi East 3.5 mph - N/A   Clear
7:55 PM 86.2 °F 89.1 °F 67.1 °F 53% 30.01 in 10.0 mi East 3.5 mph - N/A   Clear
8:15 PM 85.1 °F 87.9 °F 67.3 °F 55% 30.01 in 10.0 mi ENE 3.5 mph - N/A   Clear
8:35 PM 83.3 °F 86.4 °F 68.2 °F 60% 30.01 in 10.0 mi ENE 3.5 mph - N/A   Clear
8:55 PM 83.3 °F 86.4 °F 68.0 °F 60% 30.02 in 10.0 mi East 3.5 mph - N/A   Clear
9:15 PM 82.6 °F 85.5 °F 67.8 °F 61% 30.02 in 10.0 mi East 3.5 mph - N/A   Clear
9:35 PM 82.8 °F 85.8 °F 68.0 °F 61% 30.03 in 10.0 mi ENE 3.5 mph - N/A   Clear
9:55 PM 82.4 °F 85.4 °F 68.2 °F 62% 30.03 in 10.0 mi ENE 3.5 mph - N/A   Clear
10:15 PM 82.2 °F 84.7 °F 67.1 °F 60% 30.03 in 10.0 mi East 3.5 mph - N/A   Clear
10:35 PM 79.9 °F - 68.4 °F 68% 30.03 in 10.0 mi East 3.5 mph - N/A   Clear
10:55 PM 79.9 °F - 67.5 °F 66% 30.04 in 10.0 mi East 4.6 mph - N/A   Clear
11:15 PM 80.4 °F 83.0 °F 67.8 °F 65% 30.04 in 10.0 mi East 3.5 mph - N/A   Clear
11:35 PM 80.6 °F 83.2 °F 67.8 °F 65% 30.04 in 10.0 mi Calm Calm - N/A   Clear
11:55 PM 79.3 °F - 68.5 °F 69% 30.04 in 10.0 mi Calm Calm - N/A   Clear